createdAt,value
2023-03-05T00:00:10.703Z,-0.40
2023-03-05T00:01:27.039Z,-0.40
2023-03-05T00:02:28.675Z,-0.40
2023-03-05T00:03:30.458Z,-0.40
2023-03-05T00:04:31.983Z,-0.50
2023-03-05T00:05:34.872Z,-0.50
2023-03-05T00:06:36.386Z,-0.50
2023-03-05T00:07:37.860Z,-0.60
2023-03-05T00:08:39.421Z,-0.50
2023-03-05T00:09:41.070Z,-0.50
2023-03-05T00:10:42.504Z,-0.60
2023-03-05T00:11:43.904Z,-0.50
2023-03-05T00:12:45.615Z,-0.50
2023-03-05T00:13:47.563Z,-0.50
2023-03-05T00:14:49.028Z,-0.50
2023-03-05T00:15:50.471Z,-0.50
2023-03-05T00:16:51.944Z,-0.50
2023-03-05T00:17:53.330Z,-0.50
2023-03-05T00:18:56.946Z,-0.40
2023-03-05T00:20:00.825Z,-0.40
2023-03-05T00:21:04.023Z,-0.40
2023-03-05T00:22:05.522Z,-0.40
2023-03-05T00:23:06.982Z,-0.40
2023-03-05T00:24:16.804Z,-0.30
2023-03-05T00:25:18.361Z,-0.20
2023-03-05T00:26:22.195Z,-0.10
2023-03-05T00:27:24.038Z,-0.10
2023-03-05T00:28:25.696Z,-0.10
2023-03-05T00:29:31.327Z,-0.10
2023-03-05T00:30:34.137Z,-0.10
2023-03-05T00:31:36.528Z,-0.20
2023-03-05T00:32:38.232Z,-0.20
2023-03-05T00:33:39.873Z,-0.10
2023-03-05T00:34:41.334Z,-0.10
2023-03-05T00:35:45.405Z,0.00
2023-03-05T00:36:51.027Z,-0.10
2023-03-05T00:37:52.701Z,0.00
2023-03-05T00:38:54.348Z,0.00
2023-03-05T00:39:57.672Z,0.00
2023-03-05T00:40:59.276Z,0.00
2023-03-05T00:42:01.281Z,0.00
2023-03-05T00:43:03.623Z,-0.10
2023-03-05T00:44:05.408Z,-0.10
2023-03-05T00:45:08.198Z,0.00
2023-03-05T00:46:09.746Z,0.00
2023-03-05T00:47:11.793Z,-0.10
2023-03-05T00:48:13.245Z,-0.10
2023-03-05T00:49:14.680Z,-0.20
2023-03-05T00:50:16.235Z,-0.20
2023-03-05T00:51:18.038Z,-0.20
2023-03-05T00:52:19.534Z,-0.20
2023-03-05T00:53:21.413Z,-0.20
2023-03-05T00:54:22.923Z,-0.30
2023-03-05T00:55:24.368Z,-0.30
2023-03-05T00:56:26.043Z,-0.30
2023-03-05T00:57:27.555Z,-0.20
2023-03-05T00:58:29.796Z,-0.20
2023-03-05T00:59:31.389Z,-0.20
2023-03-05T01:00:32.987Z,-0.20
2023-03-05T01:01:34.729Z,-0.20
2023-03-05T01:02:37.288Z,-0.30
2023-03-05T01:03:38.866Z,-0.30
2023-03-05T01:04:40.316Z,-0.40
2023-03-05T01:05:41.928Z,-0.30
2023-03-05T01:06:44.786Z,-0.30
2023-03-05T01:07:51.763Z,-0.30
2023-03-05T01:08:53.257Z,-0.30
2023-03-05T01:09:54.861Z,-0.40
2023-03-05T01:10:56.337Z,-0.40
2023-03-05T01:11:57.779Z,-0.40
2023-03-05T01:13:00.014Z,-0.30
2023-03-05T01:14:01.478Z,-0.40
2023-03-05T01:15:05.886Z,-0.40
2023-03-05T01:16:08.033Z,-0.40
2023-03-05T01:17:09.568Z,-0.40
2023-03-05T01:18:10.955Z,-0.40
2023-03-05T01:19:15.079Z,-0.50
2023-03-05T01:20:18.114Z,-0.40
2023-03-05T01:21:20.194Z,-0.40
2023-03-05T01:22:21.676Z,-0.30
2023-03-05T01:23:23.234Z,-0.30
2023-03-05T01:24:24.837Z,-0.30
2023-03-05T01:25:26.226Z,-0.30
2023-03-05T01:26:28.467Z,-0.30
2023-03-05T01:27:29.896Z,-0.30
2023-03-05T01:28:32.813Z,-0.30
2023-03-05T01:29:34.499Z,-0.30
2023-03-05T01:30:36.961Z,-0.20
2023-03-05T01:31:38.924Z,-0.30
2023-03-05T01:32:40.506Z,-0.30
2023-03-05T01:33:42.012Z,-0.40
2023-03-05T01:34:43.520Z,-0.40
2023-03-05T01:35:49.203Z,-0.40
2023-03-05T01:36:50.749Z,-0.40
2023-03-05T01:37:53.385Z,-0.50
2023-03-05T01:38:54.930Z,-0.50
2023-03-05T01:39:56.926Z,-0.60
2023-03-05T01:40:58.652Z,-0.50
2023-03-05T01:42:00.613Z,-0.60
2023-03-05T01:43:14.190Z,-0.60
2023-03-05T01:44:25.456Z,-0.60
2023-03-05T01:45:32.472Z,-0.60
2023-03-05T01:46:38.933Z,-0.60
2023-03-05T01:47:40.638Z,-0.60
2023-03-05T01:48:49.892Z,-0.60
2023-03-05T01:49:51.786Z,-0.60
2023-03-05T01:50:54.297Z,-0.60
2023-03-05T01:52:03.702Z,-0.60
2023-03-05T01:53:07.458Z,-0.60
2023-03-05T01:54:11.652Z,-0.60
2023-03-05T01:55:19.880Z,-0.60
2023-03-05T01:56:21.948Z,-0.60
2023-03-05T01:57:29.140Z,-0.60
2023-03-05T01:58:31.039Z,-0.60
2023-03-05T01:59:33.462Z,-0.60
2023-03-05T02:00:41.221Z,-0.70
2023-03-05T02:01:51.029Z,-0.70
2023-03-05T02:02:53.382Z,-0.70
2023-03-05T02:03:55.191Z,-0.60
2023-03-05T02:05:02.206Z,-0.70
2023-03-05T02:06:04.049Z,-0.60
2023-03-05T02:07:05.970Z,-0.70
2023-03-05T02:08:09.730Z,-0.70
2023-03-05T02:09:11.577Z,-0.70
2023-03-05T02:10:20.076Z,-0.70
2023-03-05T02:11:21.560Z,-0.70
2023-03-05T02:12:26.358Z,-0.70
2023-03-05T02:13:32.587Z,-0.60
2023-03-05T02:14:35.104Z,-0.60
2023-03-05T02:15:37.850Z,-0.60
2023-03-05T02:16:39.758Z,-0.60
2023-03-05T02:17:41.318Z,-0.60
2023-03-05T02:18:42.740Z,-0.60
2023-03-05T02:19:56.386Z,-0.60
2023-03-05T02:20:57.854Z,-0.60
2023-03-05T02:21:59.251Z,-0.60
2023-03-05T02:23:01.121Z,-0.70
2023-03-05T02:24:02.592Z,-0.70
2023-03-05T02:25:33.124Z,-0.70
2023-03-05T02:26:34.545Z,-0.80
2023-03-05T02:27:35.946Z,-0.80
2023-03-05T02:28:42.803Z,-0.90
2023-03-05T02:29:46.775Z,-0.90
2023-03-05T02:30:48.764Z,-0.90
2023-03-05T02:31:50.282Z,-0.90
2023-03-05T02:32:52.095Z,-0.80
2023-03-05T02:33:58.688Z,-0.80
2023-03-05T02:35:00.671Z,-0.80
2023-03-05T02:36:02.821Z,-0.80
2023-03-05T02:37:09.141Z,-0.90
2023-03-05T02:38:12.621Z,-0.90
2023-03-05T02:39:14.108Z,-0.90
2023-03-05T02:40:16.608Z,-0.90
2023-03-05T02:41:18.276Z,-1.00
2023-03-05T02:42:19.867Z,-1.00
2023-03-05T02:43:21.630Z,-1.00
2023-03-05T02:44:23.101Z,-0.90
2023-03-05T02:45:24.891Z,-0.90
2023-03-05T02:46:26.467Z,-0.90
2023-03-05T02:47:28.610Z,-0.90
2023-03-05T02:48:30.977Z,-0.90
2023-03-05T02:49:32.409Z,-0.90
2023-03-05T02:50:35.407Z,-0.90
2023-03-05T02:51:37.507Z,-0.90
2023-03-05T02:52:39.424Z,-1.00
2023-03-05T02:53:45.771Z,-1.00
2023-03-05T02:54:47.244Z,-1.00
2023-03-05T02:55:49.054Z,-1.00
2023-03-05T02:56:50.776Z,-1.00
2023-03-05T02:57:52.201Z,-1.00
2023-03-05T02:58:53.577Z,-0.90
2023-03-05T02:59:55.202Z,-0.90
2023-03-05T03:00:56.788Z,-1.00
2023-03-05T03:01:58.231Z,-1.00
2023-03-05T03:02:59.664Z,-1.00
2023-03-05T03:04:02.313Z,-1.00
2023-03-05T03:05:03.920Z,-1.00
2023-03-05T03:06:06.155Z,-1.10
2023-03-05T03:07:07.545Z,-1.10
2023-03-05T03:08:09.159Z,-1.10
2023-03-05T03:09:10.567Z,-1.10
2023-03-05T03:10:12.508Z,-1.00
2023-03-05T03:11:14.234Z,-1.00
2023-03-05T03:12:16.054Z,-1.00
2023-03-05T03:13:17.538Z,-1.00
2023-03-05T03:14:19.205Z,-0.90
2023-03-05T03:15:20.938Z,-0.90
2023-03-05T03:16:22.616Z,-0.90
2023-03-05T03:17:24.039Z,-0.90
2023-03-05T03:18:25.566Z,-0.90
2023-03-05T03:19:27.439Z,-0.90
2023-03-05T03:20:28.881Z,-0.90
2023-03-05T03:21:30.750Z,-1.00
2023-03-05T03:22:32.217Z,-1.00
2023-03-05T03:23:34.406Z,-1.00
2023-03-05T03:24:37.287Z,-1.00
2023-03-05T03:25:39.156Z,-1.10
2023-03-05T03:26:40.596Z,-1.00
2023-03-05T03:27:42.396Z,-0.90
2023-03-05T03:28:44.200Z,-1.00
2023-03-05T03:29:45.664Z,-1.00
2023-03-05T03:30:47.407Z,-1.10
2023-03-05T03:31:49.272Z,-1.10
2023-03-05T03:32:52.422Z,-1.10
2023-03-05T03:33:53.913Z,-1.10
2023-03-05T03:34:55.336Z,-1.00
2023-03-05T03:35:56.780Z,-0.90
2023-03-05T03:36:58.420Z,-1.00
2023-03-05T03:37:59.984Z,-1.00
2023-03-05T03:39:01.462Z,-0.90
2023-03-05T03:40:05.702Z,-1.00
2023-03-05T03:41:08.236Z,-1.00
2023-03-05T03:42:10.073Z,-0.90
2023-03-05T03:43:11.872Z,-0.90
2023-03-05T03:44:13.883Z,-0.90
2023-03-05T03:45:15.529Z,-0.80
2023-03-05T03:46:16.993Z,-0.80
2023-03-05T03:47:19.301Z,-0.80
2023-03-05T03:48:20.775Z,-0.80
2023-03-05T03:49:25.248Z,-0.80
2023-03-05T03:50:26.711Z,-0.90
2023-03-05T03:51:28.111Z,-0.80
2023-03-05T03:52:29.779Z,-0.80
2023-03-05T03:53:31.462Z,-0.80
2023-03-05T03:54:33.414Z,-0.70
2023-03-05T03:55:35.430Z,-0.70
2023-03-05T03:56:37.197Z,-0.70
2023-03-05T03:57:38.911Z,-0.60
2023-03-05T03:58:40.313Z,-0.60
2023-03-05T03:59:41.770Z,-0.70
2023-03-05T04:00:43.283Z,-0.70
2023-03-05T04:01:44.918Z,-0.70
2023-03-05T04:02:46.522Z,-0.70
2023-03-05T04:03:48.219Z,-0.70
2023-03-05T04:04:49.978Z,-0.70
2023-03-05T04:05:51.392Z,-0.70
2023-03-05T04:06:53.339Z,-0.70
2023-03-05T04:07:55.306Z,-0.70
2023-03-05T04:08:57.444Z,-0.70
2023-03-05T04:09:58.885Z,-0.80
2023-03-05T04:11:02.262Z,-0.80
2023-03-05T04:12:03.929Z,-0.80
2023-03-05T04:13:06.501Z,-0.70
2023-03-05T04:14:08.886Z,-0.80
2023-03-05T04:15:10.833Z,-0.70
2023-03-05T04:16:13.257Z,-0.70
2023-03-05T04:17:15.428Z,-0.70
2023-03-05T04:18:16.979Z,-0.60
2023-03-05T04:19:18.440Z,-0.60
2023-03-05T04:20:19.897Z,-0.60
2023-03-05T04:21:21.454Z,-0.50
2023-03-05T04:22:22.915Z,-0.50
2023-03-05T04:23:24.390Z,-0.50
2023-03-05T04:24:26.125Z,-0.50
2023-03-05T04:25:27.665Z,-0.50
2023-03-05T04:26:30.282Z,-0.50
2023-03-05T04:27:32.393Z,-0.40
2023-03-05T04:28:33.800Z,-0.40
2023-03-05T04:29:35.490Z,-0.40
2023-03-05T04:30:37.609Z,-0.40
2023-03-05T04:31:38.991Z,-0.40
2023-03-05T04:32:41.080Z,-0.40
2023-03-05T04:33:42.512Z,-0.30
2023-03-05T04:34:43.924Z,-0.30
2023-03-05T04:35:45.429Z,-0.30
2023-03-05T04:36:46.928Z,-0.30
2023-03-05T04:37:48.556Z,-0.30
2023-03-05T04:38:49.972Z,-0.30
2023-03-05T04:39:52.133Z,-0.20
2023-03-05T04:40:53.749Z,-0.20
2023-03-05T04:41:55.304Z,-0.20
2023-03-05T04:42:56.911Z,-0.30
2023-03-05T04:43:58.438Z,-0.30
2023-03-05T04:44:59.967Z,-0.30
2023-03-05T04:46:01.506Z,-0.30
2023-03-05T04:47:03.527Z,-0.30
2023-03-05T04:48:05.085Z,-0.30
2023-03-05T04:49:06.811Z,-0.20
2023-03-05T04:50:10.164Z,-0.20
2023-03-05T04:51:11.697Z,-0.20
2023-03-05T04:52:14.032Z,-0.20
2023-03-05T04:53:15.438Z,-0.20
2023-03-05T04:54:16.868Z,-0.20
2023-03-05T04:55:18.499Z,-0.20
2023-03-05T04:56:20.197Z,-0.20
2023-03-05T04:57:23.144Z,-0.10
2023-03-05T04:58:25.409Z,-0.10
2023-03-05T04:59:26.839Z,-0.10
2023-03-05T05:00:28.342Z,-0.10
2023-03-05T05:01:29.921Z,-0.10
2023-03-05T05:02:31.507Z,-0.10
2023-03-05T05:03:33.153Z,-0.10
2023-03-05T05:04:36.140Z,0.00
2023-03-05T05:05:37.840Z,0.00
2023-03-05T05:06:39.527Z,0.00
2023-03-05T05:07:41.102Z,0.00
2023-03-05T05:08:43.354Z,0.00
2023-03-05T05:09:44.768Z,0.00
2023-03-05T05:10:46.396Z,0.00
2023-03-05T05:11:47.806Z,0.10
2023-03-05T05:12:49.224Z,0.10
2023-03-05T05:13:50.718Z,0.10
2023-03-05T05:14:52.253Z,0.20
2023-03-05T05:15:53.804Z,0.20
2023-03-05T05:16:55.209Z,0.20
2023-03-05T05:17:56.663Z,0.20
2023-03-05T05:18:58.248Z,0.20
2023-03-05T05:20:06.444Z,0.30
2023-03-05T05:21:13.061Z,0.30
2023-03-05T05:22:14.717Z,0.20
2023-03-05T05:23:17.246Z,0.20
2023-03-05T05:24:18.640Z,0.20
2023-03-05T05:25:20.427Z,0.20
2023-03-05T05:26:21.862Z,0.20
2023-03-05T05:27:23.808Z,0.20
2023-03-05T05:28:25.325Z,0.20
2023-03-05T05:29:26.756Z,0.20
2023-03-05T05:30:28.300Z,0.20
2023-03-05T05:31:29.778Z,0.20
2023-03-05T05:32:31.373Z,0.30
2023-03-05T05:33:32.848Z,0.30
2023-03-05T05:34:34.358Z,0.20
2023-03-05T05:35:39.570Z,0.30
2023-03-05T05:36:41.345Z,0.20
2023-03-05T05:37:42.781Z,0.20
2023-03-05T05:38:44.276Z,0.20
2023-03-05T05:39:50.189Z,0.20
2023-03-05T05:40:51.574Z,0.20
2023-03-05T05:41:53.703Z,0.20
2023-03-05T05:42:55.065Z,0.20
2023-03-05T05:43:56.571Z,0.20
2023-03-05T05:44:58.381Z,0.20
2023-03-05T05:46:05.316Z,0.20
2023-03-05T05:47:07.410Z,0.20
2023-03-05T05:48:09.090Z,0.20
2023-03-05T05:49:10.723Z,0.20
2023-03-05T05:50:12.229Z,0.20
2023-03-05T05:51:16.836Z,0.20
2023-03-05T05:52:18.246Z,0.10
2023-03-05T05:53:19.654Z,0.20
2023-03-05T05:54:21.068Z,0.10
2023-03-05T05:55:22.450Z,0.10
2023-03-05T05:56:24.940Z,0.20
2023-03-05T05:57:26.350Z,0.20
2023-03-05T05:58:27.753Z,0.20
2023-03-05T05:59:29.201Z,0.20
2023-03-05T06:00:30.615Z,0.10
2023-03-05T06:01:34.558Z,0.10
2023-03-05T06:02:39.337Z,0.10
2023-03-05T06:03:40.791Z,0.20
2023-03-05T06:04:42.247Z,0.20
2023-03-05T06:05:44.168Z,0.20
2023-03-05T06:06:45.895Z,0.20
2023-03-05T06:07:47.357Z,0.20
2023-03-05T06:08:50.983Z,0.20
2023-03-05T06:09:52.515Z,0.20
2023-03-05T06:10:55.419Z,0.20
2023-03-05T06:11:56.878Z,0.20
2023-03-05T06:12:58.378Z,0.20
2023-03-05T06:13:59.857Z,0.20
2023-03-05T06:15:01.382Z,0.30
2023-03-05T06:16:06.489Z,0.30
2023-03-05T06:17:07.920Z,0.30
2023-03-05T06:18:09.329Z,0.30
2023-03-05T06:19:12.644Z,0.40
2023-03-05T06:20:14.450Z,0.40
2023-03-05T06:21:17.565Z,0.40
2023-03-05T06:22:19.232Z,0.40
2023-03-05T06:23:20.669Z,0.50
2023-03-05T06:24:22.429Z,0.50
2023-03-05T06:25:23.928Z,0.50
2023-03-05T06:26:26.023Z,0.60
2023-03-05T06:27:28.102Z,0.60
2023-03-05T06:28:30.401Z,0.60
2023-03-05T06:29:31.951Z,0.50
2023-03-05T06:30:33.370Z,0.50
2023-03-05T06:31:37.138Z,0.60
2023-03-05T06:32:38.879Z,0.70
2023-03-05T06:33:41.213Z,0.70
2023-03-05T06:34:42.641Z,0.70
2023-03-05T06:35:44.076Z,0.70
2023-03-05T06:36:45.766Z,0.80
2023-03-05T06:37:47.154Z,0.80
2023-03-05T06:38:51.125Z,0.90
2023-03-05T06:39:54.297Z,0.90
2023-03-05T06:40:55.709Z,0.90
2023-03-05T06:41:57.320Z,0.90
2023-03-05T06:42:58.886Z,0.90
2023-03-05T06:44:02.391Z,1.00
2023-03-05T06:45:04.108Z,0.90
2023-03-05T06:46:17.125Z,0.90
2023-03-05T06:47:18.802Z,0.80
2023-03-05T06:48:20.180Z,0.80
2023-03-05T06:49:21.799Z,0.80
2023-03-05T06:50:23.516Z,0.80
2023-03-05T06:51:28.127Z,0.80
2023-03-05T06:52:30.164Z,0.80
2023-03-05T06:53:31.649Z,0.90
2023-03-05T06:54:33.581Z,0.90
2023-03-05T06:55:39.852Z,0.90
2023-03-05T06:56:44.259Z,1.00
2023-03-05T06:57:45.713Z,1.10
2023-03-05T06:58:49.630Z,1.10
2023-03-05T06:59:51.196Z,1.20
2023-03-05T07:00:52.718Z,1.20
2023-03-05T07:01:54.190Z,1.20
2023-03-05T07:02:55.604Z,1.30
2023-03-05T07:04:02.879Z,1.30
2023-03-05T07:05:05.937Z,1.30
2023-03-05T07:06:12.998Z,1.40
2023-03-05T07:07:14.785Z,1.40
2023-03-05T07:08:16.475Z,1.40
2023-03-05T07:09:18.054Z,1.40
2023-03-05T07:10:19.498Z,1.40
2023-03-05T07:11:21.215Z,1.40
2023-03-05T07:12:22.756Z,1.50
2023-03-05T07:13:25.644Z,1.50
2023-03-05T07:14:27.514Z,1.60
2023-03-05T07:15:28.959Z,1.60
2023-03-05T07:16:32.995Z,1.60
2023-03-05T07:17:34.441Z,1.70
2023-03-05T07:18:36.144Z,1.70
2023-03-05T07:19:38.631Z,1.80
2023-03-05T07:20:40.029Z,1.80
2023-03-05T07:21:42.055Z,1.80
2023-03-05T07:22:43.616Z,1.90
2023-03-05T07:23:45.362Z,1.90
2023-03-05T07:24:47.293Z,2.00
2023-03-05T07:25:48.667Z,2.00
2023-03-05T07:26:50.077Z,2.10
2023-03-05T07:27:51.621Z,2.10
2023-03-05T07:28:55.121Z,2.20
2023-03-05T07:29:56.587Z,2.20
2023-03-05T07:31:05.577Z,2.30
2023-03-05T07:32:07.425Z,2.40
2023-03-05T07:33:08.943Z,2.40
2023-03-05T07:34:10.590Z,2.40
2023-03-05T07:35:12.163Z,2.30
2023-03-05T07:36:14.421Z,2.40
2023-03-05T07:37:16.127Z,2.30
2023-03-05T07:38:17.638Z,2.40
2023-03-05T07:39:19.535Z,2.40
2023-03-05T07:40:21.897Z,2.40
2023-03-05T07:41:24.004Z,2.50
2023-03-05T07:42:25.749Z,2.50
2023-03-05T07:43:41.978Z,2.50
2023-03-05T07:44:43.963Z,2.50
2023-03-05T07:45:46.428Z,2.50
2023-03-05T07:46:47.930Z,2.50
2023-03-05T07:47:51.073Z,2.60
2023-03-05T07:48:54.651Z,2.60
2023-03-05T07:49:56.244Z,2.60
2023-03-05T07:51:05.384Z,2.60
2023-03-05T07:52:08.208Z,2.70
2023-03-05T07:53:10.578Z,2.60
2023-03-05T07:54:11.983Z,2.60
2023-03-05T07:55:13.535Z,2.60
2023-03-05T07:56:21.650Z,2.60
2023-03-05T07:57:23.147Z,2.70
2023-03-05T07:58:24.970Z,2.70
2023-03-05T07:59:26.479Z,2.80
2023-03-05T08:00:28.452Z,2.80
2023-03-05T08:01:31.131Z,2.90
2023-03-05T08:02:32.670Z,2.90
2023-03-05T08:03:34.157Z,3.00
2023-03-05T08:04:35.724Z,3.00
2023-03-05T08:05:39.995Z,3.00
2023-03-05T08:06:42.180Z,3.10
2023-03-05T08:07:44.164Z,3.10
2023-03-05T08:08:45.603Z,3.20
2023-03-05T08:09:47.009Z,3.20
2023-03-05T08:10:48.462Z,3.20
2023-03-05T08:11:49.906Z,3.30
2023-03-05T08:12:51.376Z,3.40
2023-03-05T08:13:53.033Z,3.40
2023-03-05T08:14:54.573Z,3.40
2023-03-05T08:15:56.370Z,3.40
2023-03-05T08:16:57.819Z,3.50
2023-03-05T08:17:59.723Z,3.50
2023-03-05T08:19:02.357Z,3.60
2023-03-05T08:20:07.729Z,3.60
2023-03-05T08:21:19.555Z,3.60
2023-03-05T08:22:20.994Z,3.60
2023-03-05T08:23:22.483Z,3.70
2023-03-05T08:24:29.379Z,3.70
2023-03-05T08:25:31.547Z,3.80
2023-03-05T08:26:35.741Z,3.80
2023-03-05T08:27:41.771Z,3.80
2023-03-05T08:28:43.793Z,3.80
2023-03-05T08:29:45.447Z,3.80
2023-03-05T08:30:47.698Z,3.80
2023-03-05T08:31:49.758Z,3.90
2023-03-05T08:32:51.222Z,3.90
2023-03-05T08:33:55.021Z,4.00
2023-03-05T08:34:58.652Z,4.00
2023-03-05T08:36:00.164Z,4.00
2023-03-05T08:37:01.850Z,4.00
2023-03-05T08:38:03.538Z,4.10
2023-03-05T08:39:06.881Z,4.10
2023-03-05T08:40:09.125Z,4.20
2023-03-05T08:41:10.994Z,4.20
2023-03-05T08:42:12.763Z,4.20
2023-03-05T08:43:15.456Z,4.20
2023-03-05T08:44:17.251Z,4.20
2023-03-05T08:45:18.893Z,4.30
2023-03-05T08:46:20.365Z,4.30
2023-03-05T08:47:22.011Z,4.30
2023-03-05T08:48:26.726Z,4.30
2023-03-05T08:49:28.170Z,4.40
2023-03-05T08:50:29.683Z,4.30
2023-03-05T08:51:31.166Z,4.20
2023-03-05T08:52:32.533Z,4.10
2023-03-05T08:53:34.200Z,4.10
2023-03-05T08:54:37.268Z,4.00
2023-03-05T08:55:38.731Z,4.00
2023-03-05T08:56:40.275Z,4.00
2023-03-05T08:57:41.754Z,3.90
2023-03-05T08:58:44.576Z,3.90
2023-03-05T08:59:45.966Z,3.90
2023-03-05T09:00:47.612Z,3.90
2023-03-05T09:01:49.205Z,3.80
2023-03-05T09:02:51.402Z,3.80
2023-03-05T09:03:52.948Z,3.80
2023-03-05T09:04:54.598Z,3.70
2023-03-05T09:06:01.021Z,3.60
2023-03-05T09:07:02.427Z,3.70
2023-03-05T09:08:03.919Z,3.70
2023-03-05T09:09:05.333Z,3.70
2023-03-05T09:10:07.732Z,3.60
2023-03-05T09:11:11.797Z,3.60
2023-03-05T09:12:13.486Z,3.60
2023-03-05T09:13:14.994Z,3.50
2023-03-05T09:14:16.356Z,3.60
2023-03-05T09:15:18.164Z,3.60
2023-03-05T09:16:20.508Z,3.70
2023-03-05T09:17:22.520Z,3.70
2023-03-05T09:18:24.534Z,3.60
2023-03-05T09:19:27.596Z,3.60
2023-03-05T09:20:29.372Z,3.70
2023-03-05T09:21:31.526Z,3.70
2023-03-05T09:22:33.474Z,3.80
2023-03-05T09:23:35.054Z,3.80
2023-03-05T09:24:36.535Z,3.80
2023-03-05T09:25:40.653Z,3.80
2023-03-05T09:26:42.301Z,3.90
2023-03-05T09:27:45.266Z,3.90
2023-03-05T09:28:47.444Z,3.90
2023-03-05T09:29:49.238Z,3.90
2023-03-05T09:30:50.660Z,3.90
2023-03-05T09:31:52.177Z,3.80
2023-03-05T09:32:53.754Z,3.90
2023-03-05T09:33:55.367Z,4.00
2023-03-05T09:34:57.469Z,4.10
2023-03-05T09:36:00.692Z,4.00
2023-03-05T09:37:03.579Z,4.00
2023-03-05T09:38:05.342Z,4.00
2023-03-05T09:39:07.224Z,3.90
2023-03-05T09:40:15.706Z,4.00
2023-03-05T09:41:31.195Z,4.10
2023-03-05T09:42:44.351Z,4.00
2023-03-05T09:44:17.166Z,3.90
2023-03-05T09:45:39.857Z,4.00
2023-03-05T09:47:31.930Z,4.00
2023-03-05T09:48:36.221Z,4.10
2023-03-05T09:49:46.387Z,4.20
2023-03-05T09:51:04.504Z,4.30
2023-03-05T09:52:18.010Z,4.30
2023-03-05T09:53:28.301Z,4.30
2023-03-05T09:54:41.480Z,4.50
2023-03-05T09:55:46.897Z,4.60
2023-03-05T09:56:53.224Z,4.50
2023-03-05T09:58:02.919Z,4.60
2023-03-05T09:59:29.505Z,4.60
2023-03-05T10:00:37.442Z,4.70
2023-03-05T10:01:42.535Z,4.80
2023-03-05T10:02:53.739Z,4.70
2023-03-05T10:04:12.348Z,4.70
2023-03-05T10:05:20.607Z,4.70
2023-03-05T10:06:31.616Z,4.70
2023-03-05T10:07:38.322Z,4.70
2023-03-05T10:08:45.614Z,4.80
2023-03-05T10:09:51.482Z,4.80
2023-03-05T10:10:54.007Z,4.90
2023-03-05T10:12:28.109Z,4.90
2023-03-05T10:13:43.054Z,4.90
2023-03-05T10:14:45.704Z,4.80
2023-03-05T10:16:31.167Z,4.80
2023-03-05T10:17:46.284Z,4.90
2023-03-05T10:19:14.724Z,4.90
2023-03-05T10:20:50.313Z,4.90
2023-03-05T10:22:03.850Z,5.00
2023-03-05T10:23:08.007Z,5.00
2023-03-05T10:24:21.823Z,5.10
2023-03-05T10:25:23.348Z,5.10
2023-03-05T10:26:45.662Z,5.00
2023-03-05T10:27:55.266Z,5.00
2023-03-05T10:29:18.927Z,5.10
2023-03-05T10:30:32.771Z,5.20
2023-03-05T10:31:57.869Z,5.10
2023-03-05T10:33:12.657Z,5.00
2023-03-05T10:34:58.489Z,5.10
2023-03-05T10:36:11.236Z,5.10
2023-03-05T10:37:51.133Z,5.10
2023-03-05T10:39:14.837Z,5.30
2023-03-05T10:40:35.271Z,5.40
2023-03-05T10:41:48.324Z,5.30
2023-03-05T10:43:05.542Z,5.20
2023-03-05T10:44:33.070Z,5.20
2023-03-05T10:45:40.247Z,5.30
2023-03-05T10:46:41.967Z,5.40
2023-03-05T10:47:59.578Z,5.40
2023-03-05T10:49:16.071Z,5.30
2023-03-05T10:50:24.540Z,5.20
2023-03-05T10:51:39.761Z,5.10
2023-03-05T10:52:48.892Z,5.10
2023-03-05T10:53:59.777Z,5.30
2023-03-05T10:55:01.663Z,5.40
2023-03-05T10:56:05.941Z,5.40
2023-03-05T10:57:23.258Z,5.50
2023-03-05T10:58:25.470Z,5.50
2023-03-05T10:59:27.811Z,5.50
2023-03-05T11:00:29.320Z,5.50
2023-03-05T11:01:31.806Z,5.60
2023-03-05T11:02:34.674Z,5.70
2023-03-05T11:03:48.219Z,5.90
2023-03-05T11:04:51.280Z,5.90
2023-03-05T11:06:03.247Z,5.80
2023-03-05T11:07:29.516Z,5.90
2023-03-05T11:08:35.860Z,6.00
2023-03-05T11:09:37.393Z,5.90
2023-03-05T11:10:38.927Z,5.90
2023-03-05T11:11:40.400Z,6.00
2023-03-05T11:12:42.016Z,6.00
2023-03-05T11:14:01.105Z,6.00
2023-03-05T11:15:14.962Z,5.90
2023-03-05T11:16:26.495Z,5.80
2023-03-05T11:17:39.338Z,5.80
2023-03-05T11:18:42.306Z,5.90
2023-03-05T11:19:43.754Z,5.90
2023-03-05T11:20:45.701Z,5.90
2023-03-05T11:22:20.597Z,5.90
2023-03-05T11:23:25.019Z,5.90
2023-03-05T11:24:26.751Z,5.90
2023-03-05T11:25:28.270Z,5.90
2023-03-05T11:26:30.214Z,6.10
2023-03-05T11:27:34.306Z,6.10
2023-03-05T11:28:37.239Z,6.30
2023-03-05T11:29:48.684Z,6.40
2023-03-05T11:30:59.620Z,6.40
2023-03-05T11:32:25.373Z,6.50
2023-03-05T11:33:27.547Z,6.50
2023-03-05T11:34:35.382Z,6.50
2023-03-05T11:35:39.767Z,6.40
2023-03-05T11:36:44.067Z,6.40
2023-03-05T11:38:01.041Z,6.40
2023-03-05T11:39:18.027Z,6.40
2023-03-05T11:40:22.513Z,6.40
2023-03-05T11:41:33.008Z,6.30
2023-03-05T11:42:34.572Z,6.40
2023-03-05T11:43:38.659Z,6.40
2023-03-05T11:44:52.928Z,6.50
2023-03-05T11:46:01.476Z,6.50
2023-03-05T11:47:29.632Z,6.60
2023-03-05T11:48:41.546Z,6.40
2023-03-05T11:49:48.700Z,6.50
2023-03-05T11:50:55.790Z,6.50
2023-03-05T11:52:03.773Z,6.60
2023-03-05T11:53:11.449Z,6.60
2023-03-05T11:54:20.381Z,6.60
2023-03-05T11:55:22.567Z,6.70
2023-03-05T11:56:36.968Z,6.70
2023-03-05T11:57:48.663Z,6.70
2023-03-05T11:59:16.448Z,6.70
2023-03-05T12:00:32.975Z,6.80
2023-03-05T12:01:49.402Z,6.80
2023-03-05T12:02:54.630Z,7.00
2023-03-05T12:03:56.753Z,7.00
2023-03-05T12:04:59.995Z,7.00
2023-03-05T12:06:34.997Z,6.90
2023-03-05T12:07:43.180Z,6.70
2023-03-05T12:08:48.995Z,6.70
2023-03-05T12:09:53.029Z,6.70
2023-03-05T12:10:55.393Z,6.70
2023-03-05T12:12:18.537Z,6.60
2023-03-05T12:13:52.058Z,6.60
2023-03-05T12:15:03.108Z,6.70
2023-03-05T12:16:32.663Z,6.70
2023-03-05T12:17:39.933Z,6.70
2023-03-05T12:19:12.126Z,6.80
2023-03-05T12:20:41.976Z,7.00
2023-03-05T12:21:44.585Z,7.00
2023-03-05T12:22:46.187Z,7.00
2023-03-05T12:23:52.036Z,7.00
2023-03-05T12:24:53.600Z,7.00
2023-03-05T12:25:59.435Z,7.10
2023-03-05T12:27:03.695Z,7.10
2023-03-05T12:28:05.149Z,7.20
2023-03-05T12:29:30.799Z,7.10
2023-03-05T12:30:35.606Z,7.20
2023-03-05T12:31:39.527Z,7.20
2023-03-05T12:32:53.492Z,7.20
2023-03-05T12:33:55.098Z,7.10
2023-03-05T12:34:58.101Z,7.20
2023-03-05T12:36:18.318Z,7.20
2023-03-05T12:37:23.286Z,7.20
2023-03-05T12:38:32.656Z,7.10
2023-03-05T12:39:49.499Z,7.20
2023-03-05T12:40:51.024Z,7.20
2023-03-05T12:41:52.494Z,7.30
2023-03-05T12:42:57.143Z,7.20
2023-03-05T12:44:24.707Z,7.20
2023-03-05T12:45:31.632Z,7.20
2023-03-05T12:46:37.878Z,7.20
2023-03-05T12:47:40.840Z,7.30
2023-03-05T12:48:44.090Z,7.20
2023-03-05T12:49:47.103Z,7.40
2023-03-05T12:50:49.428Z,7.40
2023-03-05T12:51:53.302Z,7.30
2023-03-05T12:53:00.031Z,7.30
2023-03-05T12:54:23.130Z,7.30
2023-03-05T12:55:33.508Z,7.30
2023-03-05T12:56:40.770Z,7.30
2023-03-05T12:57:45.720Z,7.40
2023-03-05T12:58:53.473Z,7.30
2023-03-05T13:00:04.972Z,7.30
2023-03-05T13:01:16.365Z,7.40
2023-03-05T13:02:31.644Z,7.40
2023-03-05T13:03:43.562Z,7.40
2023-03-05T13:04:46.831Z,7.50
2023-03-05T13:05:54.719Z,7.60
2023-03-05T13:07:05.119Z,7.70
2023-03-05T13:08:16.030Z,7.50
2023-03-05T13:09:23.684Z,7.60
2023-03-05T13:10:28.557Z,7.40
2023-03-05T13:11:37.585Z,7.40
2023-03-05T13:12:39.799Z,7.40
2023-03-05T13:13:47.220Z,7.40
2023-03-05T13:15:04.529Z,7.40
2023-03-05T13:16:06.813Z,7.30
2023-03-05T13:17:32.937Z,7.10
2023-03-05T13:18:34.700Z,7.00
2023-03-05T13:19:36.371Z,7.10
2023-03-05T13:20:42.696Z,7.10
2023-03-05T13:21:44.372Z,7.10
2023-03-05T13:22:46.117Z,7.00
2023-03-05T13:23:58.623Z,7.00
2023-03-05T13:25:20.612Z,6.90
2023-03-05T13:26:22.182Z,7.00
2023-03-05T13:27:32.156Z,7.00
2023-03-05T13:28:33.852Z,7.00
2023-03-05T13:29:36.136Z,7.10
2023-03-05T13:30:38.301Z,7.20
2023-03-05T13:31:58.769Z,7.30
2023-03-05T13:33:05.426Z,7.30
2023-03-05T13:34:19.267Z,7.30
2023-03-05T13:35:21.262Z,7.30
2023-03-05T13:36:25.756Z,7.30
2023-03-05T13:37:36.730Z,7.40
2023-03-05T13:38:45.028Z,7.20
2023-03-05T13:39:51.941Z,7.20
2023-03-05T13:41:26.912Z,7.20
2023-03-05T13:42:34.992Z,7.20
2023-03-05T13:44:00.946Z,7.30
2023-03-05T13:45:06.128Z,7.40
2023-03-05T13:46:08.134Z,7.50
2023-03-05T13:47:20.714Z,7.50
2023-03-05T13:48:22.796Z,7.60
2023-03-05T13:49:26.621Z,7.70
2023-03-05T13:50:40.480Z,7.70
2023-03-05T13:51:47.760Z,7.60
2023-03-05T13:52:49.960Z,7.40
2023-03-05T13:53:51.830Z,7.50
2023-03-05T13:54:54.042Z,7.50
2023-03-05T13:56:01.963Z,7.50
2023-03-05T13:57:06.723Z,7.50
2023-03-05T13:58:40.169Z,7.50
2023-03-05T13:59:51.948Z,7.50
2023-03-05T14:01:04.740Z,7.50
2023-03-05T14:02:19.704Z,7.50
2023-03-05T14:03:26.736Z,7.50
2023-03-05T14:04:36.922Z,7.50
2023-03-05T14:05:44.418Z,7.50
2023-03-05T14:07:01.553Z,7.40
2023-03-05T14:08:03.696Z,7.40
2023-03-05T14:09:09.079Z,7.40
2023-03-05T14:10:31.194Z,7.60
2023-03-05T14:11:34.349Z,7.60
2023-03-05T14:12:43.428Z,7.60
2023-03-05T14:13:46.017Z,7.50
2023-03-05T14:14:48.394Z,7.40